Time;durP1;ratioP1;P1;durP2;ratioP2;P2;SDS_P1;SDS_P2;PMS_P1;PMS_P2;Temp;Humidity;BMP_temperature;BMP_pressure;BME280_temperature;BME280_humidity;BME280_pressure;Samples;Min_cycle;Max_cycle;Signal;HPM_P1;HPM_P2
2022/11/25 00:01:14;;;;;;;22.58;6.07;;;;;;;1.25;75.21;92866.56;2067971;69;20220;-76
2022/11/25 00:03:41;;;;;;;17.40;7.40;;;;;;;1.30;75.31;92853.09;2067907;69;20247;-77
2022/11/25 00:06:12;;;;;;;12.75;6.63;;;;;;;1.34;75.20;92870.13;2068038;69;20255;-76
2022/11/25 00:08:38;;;;;;;22.20;7.10;;;;;;;0.96;76.88;92871.38;2068020;69;20152;-77
2022/11/25 00:11:05;;;;;;;18.20;6.47;;;;;;;1.12;75.75;92874.97;2067897;69;20655;-77
2022/11/25 00:13:31;;;;;;;19.55;6.47;;;;;;;1.27;75.48;92871.53;2067876;69;20291;-77
2022/11/25 00:16:04;;;;;;;11.50;4.68;;;;;;;1.21;75.58;92871.72;2067838;69;20203;-77
2022/11/25 00:18:30;;;;;;;11.45;4.25;;;;;;;1.26;75.03;92858.97;2067770;69;20141;-76
2022/11/25 00:20:57;;;;;;;8.73;3.60;;;;;;;1.33;75.06;92869.38;2067820;69;20465;-77
2022/11/25 00:23:23;;;;;;;8.40;4.30;;;;;;;1.36;74.80;92859.94;2067859;69;20137;-77
2022/11/25 00:25:49;;;;;;;5.75;2.45;;;;;;;1.39;74.18;92853.31;2067395;69;20179;-77
2022/11/25 00:28:16;;;;;;;5.20;2.75;;;;;;;1.52;73.90;92850.41;2067900;69;20493;-77
2022/11/25 00:30:42;;;;;;;4.38;2.03;;;;;;;1.48;73.54;92847.25;2064552;69;20232;-77
2022/11/25 00:33:07;;;;;;;4.25;1.85;;;;;;;1.51;74.21;92856.50;2064427;69;20227;-77
2022/11/25 00:35:36;;;;;;;7.32;3.00;;;;;;;1.32;74.74;92850.50;2067882;69;20586;-77
2022/11/25 00:38:01;;;;;;;6.53;2.80;;;;;;;1.24;75.31;92842.16;2064474;69;20217;-77
2022/11/25 00:40:30;;;;;;;7.88;3.20;;;;;;;1.32;75.21;92842.16;2064437;69;20255;-77
2022/11/25 00:45:42;;;;;;;8.10;3.05;;;;;;;1.40;74.75;92852.00;2064532;69;20576;-77
2022/11/25 00:48:08;;;;;;;6.50;2.40;;;;;;;1.35;74.89;92855.69;2067927;69;20149;-76
2022/11/25 00:50:34;;;;;;;3.60;2.00;;;;;;;1.24;75.61;92861.56;2064780;69;20148;-76
2022/11/25 00:52:59;;;;;;;4.88;2.13;;;;;;;1.41;74.87;92855.53;2064479;69;20161;-76
2022/11/25 00:56:11;;;;;;;5.78;2.17;;;;;;;1.35;74.68;92843.84;2067459;69;20517;-76
2022/11/25 00:58:10;;;;;;;3.90;1.98;;;;;;;1.48;74.73;92847.25;2070114;69;20194;-76
2022/11/25 01:00:37;;;;;;;3.45;1.80;;;;;;;1.46;74.28;92849.06;2067212;69;20195;-76
2022/11/25 01:03:03;;;;;;;3.40;1.60;;;;;;;1.46;74.18;92858.13;2067733;69;20144;-76
2022/11/25 01:05:31;;;;;;;3.63;1.25;;;;;;;1.51;74.64;92851.72;2068003;69;20148;-76
2022/11/25 01:07:57;;;;;;;5.85;1.88;;;;;;;1.45;74.31;92855.91;2068416;69;20152;-76
2022/11/25 01:10:22;;;;;;;2.28;1.40;;;;;;;1.52;74.18;92852.44;2068676;69;20167;-76
2022/11/25 01:12:50;;;;;;;4.75;2.40;;;;;;;0.80;76.67;92864.25;2068714;69;20164;-77
2022/11/25 01:15:16;;;;;;;5.10;2.30;;;;;;;1.14;75.76;92863.34;2068576;69;20168;-77
2022/11/25 01:17:42;;;;;;;4.50;2.22;;;;;;;1.22;75.37;92862.09;2072103;69;20151;-78
2022/11/25 01:20:08;;;;;;;3.92;2.00;;;;;;;1.29;75.10;92865.47;2071880;69;20128;-78
2022/11/25 01:22:34;;;;;;;3.85;1.88;;;;;;;1.28;75.17;92870.25;2072099;69;20152;-78
2022/11/25 01:25:04;;;;;;;4.95;1.98;;;;;;;1.39;74.67;92869.94;2071829;69;20619;-77
2022/11/25 01:27:30;;;;;;;3.60;1.92;;;;;;;1.36;74.87;92868.25;2071854;69;20168;-77
2022/11/25 01:29:56;;;;;;;4.65;1.65;;;;;;;1.44;74.63;92873.84;2071196;69;20151;-77
2022/11/25 01:32:22;;;;;;;4.78;1.98;;;;;;;1.52;74.16;92863.53;2068342;69;20148;-77
2022/11/25 01:34:49;;;;;;;3.15;1.67;;;;;;;1.62;74.10;92870.06;2071532;69;20140;-75
2022/11/25 01:37:15;;;;;;;5.90;2.85;;;;;;;1.35;74.75;92866.03;2071660;69;20170;-77
2022/11/25 01:39:42;;;;;;;7.07;2.78;;;;;;;1.53;74.15;92867.81;2071758;69;20205;-76
2022/11/25 01:42:08;;;;;;;6.50;3.58;;;;;;;1.48;74.21;92863.91;2071769;69;20148;-76
2022/11/25 01:44:41;;;;;;;5.78;3.25;;;;;;;1.48;74.30;92858.34;2068581;69;20195;-77
2022/11/25 01:47:23;;;;;;;7.05;2.65;;;;;;;1.53;74.54;92860.22;2071703;69;20151;-77
2022/11/25 01:50:10;;;;;;;4.97;2.42;;;;;;;1.54;74.50;92860.97;2065575;69;20501;-76
2022/11/25 01:52:45;;;;;;;4.32;2.25;;;;;;;1.45;74.75;92861.47;2071934;69;20235;-78
2022/11/25 01:55:19;;;;;;;3.85;2.05;;;;;;;1.53;74.46;92856.69;2065640;69;20137;-77
2022/11/25 01:57:58;;;;;;;3.67;1.98;;;;;;;1.50;74.15;92855.00;2068298;69;20588;-77
2022/11/25 02:00:24;;;;;;;5.07;2.10;;;;;;;1.55;74.08;92853.38;2065385;69;20147;-76
2022/11/25 02:02:53;;;;;;;3.95;1.88;;;;;;;1.53;74.10;92853.94;2070805;69;20184;-76
2022/11/25 02:05:38;;;;;;;4.10;2.33;;;;;;;1.31;75.66;92860.84;2068067;69;20225;-76
2022/11/25 02:08:06;;;;;;;3.03;1.73;;;;;;;1.49;74.72;92856.31;2071424;69;20676;-76
2022/11/25 02:10:33;;;;;;;4.38;1.73;;;;;;;1.50;74.53;92866.13;2071512;69;20167;-77
2022/11/25 02:13:01;;;;;;;4.47;1.75;;;;;;;1.53;74.05;92856.69;2068039;69;20152;-76
2022/11/25 02:15:30;;;;;;;3.17;2.10;;;;;;;1.42;74.97;92860.53;2071313;69;20179;-76
2022/11/25 02:17:55;;;;;;;5.43;2.00;;;;;;;1.55;74.85;92858.91;2071283;69;20172;-76
2022/11/25 02:20:22;;;;;;;3.33;1.77;;;;;;;1.45;74.92;92853.88;2071668;69;20186;-76
2022/11/25 02:23:27;;;;;;;3.10;1.73;;;;;;;1.46;74.57;92854.63;2068117;69;20172;-77
2022/11/25 02:25:54;;;;;;;3.25;1.60;;;;;;;1.52;74.71;92852.44;2068035;69;20241;-76
2022/11/25 02:28:29;;;;;;;2.80;1.50;;;;;;;1.48;74.65;92847.25;2071424;69;20655;-76
2022/11/25 02:30:55;;;;;;;3.15;1.80;;;;;;;1.43;74.67;92839.09;2071495;69;20141;-76
2022/11/25 02:33:23;;;;;;;5.07;1.80;;;;;;;1.40;75.16;92845.72;2067909;69;20148;-76
2022/11/25 02:36:01;;;;;;;4.82;1.63;;;;;;;1.47;74.56;92840.22;2071356;69;20136;-76
2022/11/25 02:38:37;;;;;;;3.05;1.48;;;;;;;1.41;74.86;92850.72;2071436;69;20144;-76
2022/11/25 02:41:09;;;;;;;3.17;1.52;;;;;;;1.43;74.86;92848.16;2068025;69;20225;-76
2022/11/25 02:43:37;;;;;;;3.13;1.60;;;;;;;1.42;74.51;92849.44;2068036;69;20576;-76
2022/11/25 02:46:08;;;;;;;3.80;2.05;;;;;;;1.31;75.36;92835.16;2068145;69;20596;-76
2022/11/25 02:48:35;;;;;;;4.85;1.92;;;;;;;1.36;74.92;92834.97;2068093;69;20205;-76
2022/11/25 02:51:02;;;;;;;4.90;1.80;;;;;;;1.19;75.26;92823.59;2070921;69;20174;-76
2022/11/25 02:53:29;;;;;;;4.40;1.60;;;;;;;1.34;75.41;92822.97;2068167;69;20569;-76
2022/11/25 02:55:54;;;;;;;2.13;1.40;;;;;;;1.31;75.41;92818.50;2068094;69;20155;-77
2022/11/25 02:58:21;;;;;;;3.40;1.73;;;;;;;1.47;74.96;92826.34;2071424;69;20587;-76
2022/11/25 03:00:48;;;;;;;3.15;1.40;;;;;;;1.36;74.29;92815.56;2071634;69;20223;-76
2022/11/25 03:03:15;;;;;;;1.40;1.17;;;;;;;1.31;74.66;92816.47;2067977;69;20156;-76
2022/11/25 03:05:40;;;;;;;2.08;1.40;;;;;;;1.40;74.94;92817.97;2068143;69;20150;-77
2022/11/25 03:08:06;;;;;;;2.33;1.27;;;;;;;1.34;74.87;92826.47;2067987;69;20144;-75
2022/11/25 03:10:36;;;;;;;3.58;1.50;;;;;;;1.29;75.50;92818.31;2070723;69;20329;-76
2022/11/25 03:13:02;;;;;;;1.95;1.25;;;;;;;1.26;74.58;92814.59;2071384;69;20144;-77
2022/11/25 03:15:28;;;;;;;2.40;1.48;;;;;;;1.32;75.08;92817.22;2067966;69;20183;-77
2022/11/25 03:17:55;;;;;;;2.78;1.50;;;;;;;1.18;75.21;92809.00;2067896;69;20223;-76
2022/11/25 03:20:22;;;;;;;40.80;16.10;;;;;;;1.15;76.31;92821.22;2068055;69;20144;-76
2022/11/25 03:22:48;;;;;;;4.97;2.33;;;;;;;1.27;75.70;92818.84;2064852;69;20206;-76
2022/11/25 03:25:15;;;;;;;5.25;2.30;;;;;;;1.32;75.18;92819.97;2071355;69;20152;-76
2022/11/25 03:27:43;;;;;;;16.63;6.13;;;;;;;1.40;75.04;92817.97;2071435;69;20591;-76
2022/11/25 03:30:14;;;;;;;14.18;6.85;;;;;;;1.34;74.74;92826.47;2071668;69;20485;-76
2022/11/25 03:32:42;;;;;;;10.18;5.13;;;;;;;1.38;74.54;92820.59;2065622;69;20221;-77
2022/11/25 03:35:09;;;;;;;5.15;3.10;;;;;;;1.35;74.54;92824.44;2071821;69;20168;-77
2022/11/25 03:37:36;;;;;;;3.25;1.85;;;;;;;1.39;73.82;92827.59;2065682;69;20140;-78
2022/11/25 03:40:03;;;;;;;3.13;1.98;;;;;;;1.35;74.09;92830.00;2068295;69;20179;-77
2022/11/25 03:42:30;;;;;;;6.30;3.42;;;;;;;1.24;74.76;92823.47;2068092;69;20144;-76
2022/11/25 03:44:58;;;;;;;6.95;2.03;;;;;;;1.15;75.01;92817.69;2068912;69;20144;-78
2022/11/25 03:47:24;;;;;;;2.50;1.70;;;;;;;1.21;75.08;92805.16;2073939;69;20155;-77
2022/11/25 03:49:50;;;;;;;5.00;2.08;;;;;;;1.33;74.74;92805.59;2073887;69;20148;-76
2022/11/25 03:52:16;;;;;;;6.90;2.20;;;;;;;1.25;75.05;92808.31;2071465;69;20175;-77
2022/11/25 03:54:42;;;;;;;3.67;2.00;;;;;;;1.27;74.78;92802.22;2073094;69;20183;-78
2022/11/25 03:57:17;;;;;;;2.47;1.83;;;;;;;1.17;74.58;92804.75;2068925;69;20174;-77
2022/11/25 03:59:44;;;;;;;6.22;1.73;;;;;;;1.21;74.54;92804.41;2068125;69;20523;-77
2022/11/25 04:02:10;;;;;;;2.20;1.40;;;;;;;1.21;74.35;92802.38;2065144;69;20220;-77
2022/11/25 04:04:36;;;;;;;1.55;1.20;;;;;;;1.17;73.97;92806.78;2071423;69;20148;-78
2022/11/25 04:07:02;;;;;;;3.10;1.35;;;;;;;0.93;74.95;92811.47;2065244;69;20473;-77
2022/11/25 04:09:28;;;;;;;4.18;1.40;;;;;;;1.01;75.67;92809.50;2070728;69;20180;-78
2022/11/25 04:14:50;;;;;;;2.28;1.30;;;;;;;1.01;74.74;92828.91;2067912;69;20272;-77
2022/11/25 04:17:24;;;;;;;2.15;1.30;;;;;;;1.03;74.92;92828.34;2067987;69;20143;-78
2022/11/25 04:19:50;;;;;;;3.72;1.52;;;;;;;0.95;74.28;92836.59;2067890;69;20160;-77
2022/11/25 04:22:16;;;;;;;1.95;1.40;;;;;;;1.00;74.65;92832.19;2068058;69;20184;-78
2022/11/25 04:24:44;;;;;;;1.88;1.10;;;;;;;0.96;74.42;92826.25;2067825;69;20592;-78
2022/11/25 04:27:12;;;;;;;2.40;1.30;;;;;;;0.88;74.09;92831.78;2067730;69;20136;-78
2022/11/25 04:29:37;;;;;;;2.33;1.00;;;;;;;0.91;74.17;92824.38;2067789;69;20155;-78
2022/11/25 04:32:04;;;;;;;2.90;1.80;;;;;;;0.58;75.56;92840.59;2067721;69;20213;-78
2022/11/25 04:34:30;;;;;;;3.83;1.77;;;;;;;0.70;76.53;92839.03;2067874;69;20171;-78
2022/11/25 04:36:59;;;;;;;2.50;1.52;;;;;;;0.76;75.77;92836.13;2071281;69;20168;-77
2022/11/25 04:39:25;;;;;;;2.25;1.35;;;;;;;0.74;75.99;92828.38;2067864;69;20517;-78
2022/11/25 04:42:30;;;;;;;3.38;1.70;;;;;;;0.75;75.96;92829.09;2068349;69;20515;-78
2022/11/25 04:44:40;;;;;;;2.58;1.52;;;;;;;0.68;75.45;92824.97;2071638;69;20175;-77
2022/11/25 04:47:06;;;;;;;3.88;1.67;;;;;;;0.70;75.40;92832.75;2068278;69;20152;-78
2022/11/25 04:49:31;;;;;;;10.43;4.95;;;;;;;0.75;75.46;92840.19;2071714;69;20152;-78
2022/11/25 04:51:57;;;;;;;10.80;5.28;;;;;;;0.69;75.41;92837.56;2065480;69;20209;-78
2022/11/25 04:54:24;;;;;;;9.02;4.88;;;;;;;0.74;74.55;92842.22;2068207;69;20156;-78
2022/11/25 04:56:51;;;;;;;6.65;3.42;;;;;;;0.65;74.78;92841.97;2068311;69;20188;-78
2022/11/25 05:02:02;;;;;;;17.67;7.25;;;;;;;0.61;75.31;92850.63;2068156;69;20231;-78
2022/11/25 05:04:36;;;;;;;14.30;5.25;;;;;;;0.47;75.07;92832.59;2068441;69;20232;-78
2022/11/25 05:07:02;;;;;;;11.48;4.85;;;;;;;0.57;75.59;92852.97;2068335;69;20158;-77
2022/11/25 05:09:28;;;;;;;18.83;6.93;;;;;;;0.62;75.46;92854.13;2068284;69;20167;-78
2022/11/25 05:12:07;;;;;;;18.42;8.15;;;;;;;0.53;74.64;92855.34;2068256;69;20162;-77
2022/11/25 05:14:34;;;;;;;15.50;7.53;;;;;;;0.56;74.68;92853.53;2068196;69;20139;-78
2022/11/25 05:17:04;;;;;;;39.97;15.15;;;;;;;0.22;77.02;92859.88;2068122;69;20275;-77
2022/11/25 05:19:30;;;;;;;47.00;15.65;;;;;;;0.53;77.14;92849.81;2068150;69;20373;-77
2022/11/25 05:21:55;;;;;;;33.50;13.35;;;;;;;0.62;76.31;92860.41;2068230;69;20155;-78
2022/11/25 05:24:24;;;;;;;18.75;9.15;;;;;;;0.53;75.84;92863.66;2068349;69;20152;-79
2022/11/25 05:26:52;;;;;;;3.13;1.30;;;;;;;0.65;74.30;92851.03;2068297;69;20240;-79
2022/11/25 05:29:18;;;;;;;2.42;1.48;;;;;;;0.85;73.40;92852.25;2065502;69;20600;-79
2022/11/25 05:31:44;;;;;;;4.88;1.20;;;;;;;0.82;73.98;92861.66;2068130;69;20141;-78
2022/11/25 05:34:10;;;;;;;3.00;1.80;;;;;;;0.86;73.34;92847.44;2068263;69;20144;-78
2022/11/25 05:36:36;;;;;;;4.22;1.67;;;;;;;1.00;73.34;92854.38;2068303;69;20563;-78
2022/11/25 05:39:04;;;;;;;2.78;1.40;;;;;;;1.05;73.08;92849.97;2068045;69;20148;-78
2022/11/25 05:41:50;;;;;;;4.30;1.65;;;;;;;1.05;72.26;92847.19;2071601;69;20184;-78
2022/11/25 05:44:16;;;;;;;15.07;7.45;;;;;;;0.75;74.02;92840.19;2065464;69;20611;-78
2022/11/25 05:46:45;;;;;;;7.57;3.63;;;;;;;0.78;73.88;92844.66;2068215;69;20164;-78
2022/11/25 05:49:11;;;;;;;4.68;2.97;;;;;;;0.94;73.78;92845.47;2065524;69;20246;-77
2022/11/25 05:51:37;;;;;;;6.55;3.50;;;;;;;1.01;73.71;92845.53;2071419;69;20156;-78
2022/11/25 05:54:04;;;;;;;8.23;4.45;;;;;;;0.97;73.76;92841.63;2071043;69;20152;-78
2022/11/25 05:56:31;;;;;;;9.43;4.78;;;;;;;0.94;73.82;92842.72;2068304;69;20136;-78
2022/11/25 05:59:17;;;;;;;9.77;4.53;;;;;;;0.94;73.56;92843.44;2065781;69;20145;-78
2022/11/25 06:02:10;;;;;;;6.72;3.97;;;;;;;0.97;73.51;92845.13;2069253;69;20460;-78
2022/11/25 06:04:36;;;;;;;7.30;3.00;;;;;;;1.00;73.59;92846.81;2068140;69;20571;-78
2022/11/25 06:07:02;;;;;;;8.32;4.07;;;;;;;1.00;73.53;92843.28;2071123;69;20234;-78
2022/11/25 06:09:29;;;;;;;3.28;1.80;;;;;;;1.00;72.94;92848.84;2068172;69;20209;-78
2022/11/25 06:11:55;;;;;;;15.68;8.50;;;;;;;1.01;72.57;92859.41;2068355;69;20140;-78
2022/11/25 06:14:21;;;;;;;8.18;4.00;;;;;;;1.04;72.13;92865.13;2068046;69;20140;-79
2022/11/25 06:16:48;;;;;;;5.38;3.22;;;;;;;0.92;71.91;92859.91;2068037;69;20235;-79
2022/11/25 06:19:21;;;;;;;4.68;2.80;;;;;;;0.94;72.07;92864.88;2068129;69;20148;-79
2022/11/25 06:21:47;;;;;;;3.63;2.20;;;;;;;1.05;72.07;92867.34;2071412;69;20164;-78
2022/11/25 06:24:13;;;;;;;3.20;1.67;;;;;;;1.00;72.40;92871.75;2068095;69;20144;-79
2022/11/25 06:26:41;;;;;;;2.90;1.63;;;;;;;1.11;72.28;92858.91;2068154;69;20272;-78
2022/11/25 06:29:06;;;;;;;3.25;1.50;;;;;;;1.21;72.02;92857.84;2068235;69;20299;-78
2022/11/25 06:31:32;;;;;;;5.05;1.60;;;;;;;1.21;72.18;92852.28;2068213;69;20221;-78
2022/11/25 06:34:09;;;;;;;2.13;1.27;;;;;;;1.12;72.41;92858.34;2068216;69;20152;-78
2022/11/25 06:36:36;;;;;;;5.63;2.97;;;;;;;1.14;72.11;92858.53;2068163;69;20151;-78
2022/11/25 06:39:02;;;;;;;8.40;4.35;;;;;;;1.10;72.11;92862.94;2071479;69;20152;-79
2022/11/25 06:41:30;;;;;;;9.52;5.50;;;;;;;1.18;71.81;92858.19;2071683;69;20168;-78
2022/11/25 06:43:56;;;;;;;8.85;5.72;;;;;;;1.09;72.33;92864.97;2068180;69;20182;-78
2022/11/25 06:46:23;;;;;;;9.23;4.85;;;;;;;1.15;72.11;92860.03;2071529;69;20584;-78
2022/11/25 06:48:48;;;;;;;6.15;3.67;;;;;;;1.14;71.95;92860.56;2071417;69;20230;-79
2022/11/25 06:51:16;;;;;;;5.50;2.30;;;;;;;1.10;72.69;92860.16;2071602;69;20503;-79
2022/11/25 06:53:43;;;;;;;2.60;1.63;;;;;;;0.98;72.89;92854.94;2071539;69;20294;-78
2022/11/25 06:56:19;;;;;;;2.53;1.30;;;;;;;1.06;72.18;92860.53;2071500;69;20140;-78
2022/11/25 06:58:46;;;;;;;1.40;1.10;;;;;;;1.22;71.66;92864.88;2071457;69;20246;-78
2022/11/25 07:01:15;;;;;;;2.65;0.88;;;;;;;1.22;72.10;92864.13;2068241;69;20206;-78
2022/11/25 07:03:42;;;;;;;1.55;1.00;;;;;;;1.17;72.05;92859.47;2071325;69;20568;-78
2022/11/25 07:06:08;;;;;;;4.65;1.67;;;;;;;1.17;71.96;92874.09;2071494;69;20144;-78
2022/11/25 07:08:34;;;;;;;7.53;4.20;;;;;;;1.08;72.81;92880.13;2071673;69;20195;-79
2022/11/25 07:11:11;;;;;;;7.78;3.70;;;;;;;1.14;72.38;92882.75;2071398;69;20608;-79
2022/11/25 07:13:36;;;;;;;7.07;3.50;;;;;;;1.12;72.61;92877.75;2071506;69;20140;-79
2022/11/25 07:16:04;;;;;;;4.70;2.58;;;;;;;1.22;72.13;92878.72;2071566;69;20171;-79
2022/11/25 07:18:34;;;;;;;3.20;1.30;;;;;;;1.31;72.26;92873.97;2071387;69;20146;-80
2022/11/25 07:21:05;;;;;;;3.25;1.55;;;;;;;1.32;72.08;92875.44;2071497;69;20164;-78
2022/11/25 07:23:32;;;;;;;4.43;2.03;;;;;;;1.44;71.31;92880.16;2071531;69;20140;-80
2022/11/25 07:26:12;;;;;;;9.38;4.85;;;;;;;1.18;72.13;92880.38;2071430;69;20155;-80
2022/11/25 07:28:38;;;;;;;14.10;7.90;;;;;;;1.18;72.63;92881.09;2068399;69;20569;-80
2022/11/25 07:31:05;;;;;;;13.65;7.45;;;;;;;1.36;72.46;92892.50;2071551;69;20253;-79
2022/11/25 07:33:30;;;;;;;15.02;7.65;;;;;;;1.44;72.79;92880.16;2071373;69;20163;-79
2022/11/25 07:36:00;;;;;;;13.40;8.10;;;;;;;1.47;73.37;92884.63;2071338;69;20145;-80
2022/11/25 07:38:27;;;;;;;19.55;9.50;;;;;;;1.66;72.33;92891.91;2071515;69;20149;-79
2022/11/25 07:40:52;;;;;;;17.40;9.02;;;;;;;1.59;72.43;92893.34;2068124;69;20236;-79
2022/11/25 07:43:18;;;;;;;18.20;9.00;;;;;;;1.69;73.32;92893.56;2071361;69;20171;-79
2022/11/25 07:45:43;;;;;;;17.63;8.93;;;;;;;1.87;73.22;92895.31;2068152;69;20227;-80
2022/11/25 07:48:09;;;;;;;33.20;13.55;;;;;;;2.06;72.82;92888.72;2071260;69;20128;-80
2022/11/25 07:50:35;;;;;;;29.35;13.52;;;;;;;2.15;71.91;92888.19;2071416;69;20152;-79
2022/11/25 07:53:00;;;;;;;55.92;26.23;;;;;;;2.16;71.43;92892.47;2071378;69;20156;-80
2022/11/25 07:55:26;;;;;;;33.95;18.35;;;;;;;2.26;71.53;92896.19;2071289;69;20320;-79
2022/11/25 07:57:52;;;;;;;30.02;16.52;;;;;;;2.43;72.24;92892.84;2071316;69;20159;-79
2022/11/25 08:00:18;;;;;;;27.65;14.13;;;;;;;2.45;71.27;92898.63;2071518;69;20140;-78
2022/11/25 08:02:44;;;;;;;21.35;12.15;;;;;;;2.54;70.43;92896.03;2071188;69;20163;-78
2022/11/25 08:05:10;;;;;;;43.13;20.08;;;;;;;2.64;70.67;92896.22;2071434;69;20615;-78
2022/11/25 08:07:36;;;;;;;34.10;16.13;;;;;;;2.62;71.73;92881.41;2071318;69;20266;-78
2022/11/25 08:10:02;;;;;;;33.33;16.63;;;;;;;2.71;71.45;92903.84;2071322;69;20164;-78
2022/11/25 08:12:28;;;;;;;31.13;15.07;;;;;;;2.61;72.14;92908.47;2072454;69;20158;-79
2022/11/25 08:14:53;;;;;;;24.42;11.43;;;;;;;2.75;71.44;92909.78;2079173;69;20166;-79
2022/11/25 08:17:19;;;;;;;23.77;11.52;;;;;;;2.84;70.70;92907.72;2080173;69;20128;-78
2022/11/25 08:19:44;;;;;;;23.13;11.00;;;;;;;3.02;70.27;92909.38;2077159;69;20148;-80
2022/11/25 08:22:10;;;;;;;22.00;11.73;;;;;;;3.14;71.56;92904.94;2073168;69;20172;-79
2022/11/25 08:24:35;;;;;;;17.10;8.50;;;;;;;3.34;70.25;92903.25;2069386;69;20496;-79
2022/11/25 08:27:01;;;;;;;14.27;7.20;;;;;;;3.52;69.70;92907.66;2071839;69;20317;-80
2022/11/25 08:29:26;;;;;;;16.15;7.40;;;;;;;3.61;69.45;92905.59;2071919;69;20187;-78
2022/11/25 08:31:53;;;;;;;15.80;7.82;;;;;;;3.69;69.48;92909.84;2068535;69;20239;-78
2022/11/25 08:34:24;;;;;;;14.43;6.97;;;;;;;3.67;69.64;92909.69;2071804;69;20140;-78
2022/11/25 08:36:57;;;;;;;13.52;6.40;;;;;;;3.75;67.81;92915.22;2068624;69;20259;-78
2022/11/25 08:39:23;;;;;;;18.90;7.90;;;;;;;3.97;66.98;92922.03;2071848;69;20583;-80
2022/11/25 08:41:49;;;;;;;18.08;8.25;;;;;;;3.99;67.63;92927.78;2071842;69;20571;-77
2022/11/25 08:44:14;;;;;;;19.33;8.55;;;;;;;3.81;68.01;92924.88;2071856;69;20155;-78
2022/11/25 08:46:41;;;;;;;20.55;10.30;;;;;;;4.06;68.19;92927.75;2071723;69;20315;-78
2022/11/25 08:49:10;;;;;;;20.15;9.98;;;;;;;4.12;67.84;92932.34;2071734;69;20136;-78
2022/11/25 08:51:37;;;;;;;19.48;9.52;;;;;;;4.44;67.35;92926.81;2071809;69;20611;-77
2022/11/25 08:54:04;;;;;;;18.10;9.13;;;;;;;4.68;66.73;92928.19;2071653;69;20168;-78
2022/11/25 08:56:30;;;;;;;17.63;9.05;;;;;;;4.48;66.58;92934.78;2072027;69;20220;-79
2022/11/25 08:58:56;;;;;;;19.48;10.23;;;;;;;4.42;67.78;92931.47;2071852;69;20511;-79
2022/11/25 09:01:23;;;;;;;19.20;10.40;;;;;;;4.80;65.53;92936.84;2071978;69;20212;-78
2022/11/25 09:03:53;;;;;;;28.48;13.35;;;;;;;5.09;65.42;92926.78;2071565;69;20547;-78
2022/11/25 09:06:20;;;;;;;25.67;13.38;;;;;;;5.14;64.59;92941.06;2071902;69;20152;-78
2022/11/25 09:08:46;;;;;;;22.45;11.88;;;;;;;5.29;63.04;92943.75;2068501;69;20149;-79
2022/11/25 09:11:12;;;;;;;28.15;14.43;;;;;;;5.30;63.31;92937.56;2071710;69;20187;-78
2022/11/25 09:13:37;;;;;;;24.13;12.57;;;;;;;5.67;63.13;92940.59;2071646;69;20159;-79
2022/11/25 09:16:04;;;;;;;23.95;10.68;;;;;;;5.86;62.13;92935.22;2071604;69;20239;-78
2022/11/25 09:18:31;;;;;;;24.35;11.90;;;;;;;5.48;61.21;92938.34;2071592;69;20314;-79
2022/11/25 09:20:57;;;;;;;22.02;11.13;;;;;;;5.95;61.40;92935.88;2071655;69;20553;-79
2022/11/25 09:23:24;;;;;;;21.85;11.20;;;;;;;6.35;62.17;92935.59;2071695;69;20184;-79
2022/11/25 09:25:52;;;;;;;10.68;6.85;;;;;;;6.24;58.68;92930.53;2068182;69;20143;-76
2022/11/25 09:28:19;;;;;;;14.45;8.18;;;;;;;5.86;57.54;92918.44;2071787;69;20272;-77
2022/11/25 09:30:45;;;;;;;17.50;9.23;;;;;;;6.39;60.74;92924.00;2071665;69;20223;-78
2022/11/25 09:33:11;;;;;;;20.25;10.20;;;;;;;5.99;59.39;92917.38;2065377;69;20247;-77
2022/11/25 09:35:36;;;;;;;19.48;10.43;;;;;;;6.22;58.09;92917.13;2071646;69;20155;-77
2022/11/25 09:38:02;;;;;;;19.95;10.00;;;;;;;6.56;59.18;92913.53;2071686;69;20159;-76
2022/11/25 09:40:46;;;;;;;18.98;10.00;;;;;;;6.05;58.10;92923.47;2071607;69;20599;-76
2022/11/25 09:49:12;;;;;;;10.45;6.28;;;;;;;7.98;54.04;92936.13;2071518;69;20114;-77
2022/11/25 09:52:02;;;;;;;14.93;6.72;;;;;;;8.08;54.96;92942.47;2068245;69;20140;-76
2022/11/25 09:54:42;;;;;;;9.32;5.35;;;;;;;7.47;53.81;92947.09;2071620;69;20147;-78
2022/11/25 09:57:25;;;;;;;10.35;4.68;;;;;;;7.16;53.61;92940.47;2071585;69;20487;-76
2022/11/25 10:00:04;;;;;;;6.85;4.28;;;;;;;8.12;54.19;92942.78;2071819;69;20148;-77
2022/11/25 10:03:03;;;;;;;7.35;4.10;;;;;;;8.53;51.15;92940.88;2071752;69;20153;-77
2022/11/25 10:05:37;;;;;;;9.93;4.75;;;;;;;8.99;51.38;92942.72;2071671;69;20530;-78
2022/11/25 10:08:14;;;;;;;10.05;4.60;;;;;;;9.14;49.09;92941.63;2071777;69;20155;-79
2022/11/25 10:10:46;;;;;;;8.27;4.70;;;;;;;10.08;50.54;92940.28;2071677;69;20175;-78
2022/11/25 10:13:31;;;;;;;8.53;4.20;;;;;;;10.57;46.65;92954.00;2071722;69;20138;-78
2022/11/25 10:16:01;;;;;;;9.20;3.80;;;;;;;10.53;48.16;92942.47;2071687;69;20642;-77
2022/11/25 10:18:38;;;;;;;6.15;3.70;;;;;;;10.29;46.90;92950.81;2071761;69;20175;-77
2022/11/25 10:21:04;;;;;;;7.05;3.92;;;;;;;10.74;45.44;92952.97;2071718;69;20197;-77
2022/11/25 10:23:35;;;;;;;11.52;5.75;;;;;;;10.83;44.96;92954.97;2071578;69;20152;-77
2022/11/25 10:26:14;;;;;;;10.52;6.93;;;;;;;11.13;44.23;92945.63;2071494;69;20242;-77
2022/11/25 10:28:47;;;;;;;5.32;3.80;;;;;;;11.22;44.54;92948.94;2068213;69;20298;-80
2022/11/25 10:31:19;;;;;;;6.78;3.70;;;;;;;11.47;44.10;92945.53;2071786;69;20142;-78
2022/11/25 10:33:52;;;;;;;4.88;3.20;;;;;;;12.85;41.42;92947.28;2071559;69;20213;-77
2022/11/25 10:36:17;;;;;;;4.47;2.47;;;;;;;13.42;41.36;92944.78;2071792;69;20140;-78
2022/11/25 10:39:15;;;;;;;7.65;2.70;;;;;;;13.39;39.74;92949.63;2071347;69;20582;-77
2022/11/25 10:41:58;;;;;;;8.43;3.05;;;;;;;12.86;41.09;92960.06;2071510;69;20144;-78
2022/11/25 10:44:23;;;;;;;;;;;;;;;13.34;41.94;92952.84;2071664;69;20132;-80
2022/11/25 10:47:08;;;;;;;3.55;2.80;;;;;;;14.82;38.02;92953.41;2071568;69;20036;-82
2022/11/25 10:50:11;;;;;;;4.00;2.60;;;;;;;16.34;36.28;92956.91;2071554;69;20498;-80
2022/11/25 10:52:55;;;;;;;5.60;3.55;;;;;;;16.68;35.46;92962.63;2071751;69;20149;-79
2022/11/25 10:55:25;;;;;;;4.55;2.80;;;;;;;17.69;32.48;92968.16;2071553;69;20175;-80
2022/11/25 10:57:54;;;;;;;4.07;2.80;;;;;;;19.08;29.64;92956.06;2068141;69;20238;-80
2022/11/25 11:00:28;;;;;;;3.88;2.80;;;;;;;19.52;29.76;92948.22;2071610;69;20148;-79
2022/11/25 11:02:55;;;;;;;5.10;2.83;;;;;;;17.71;30.94;92956.81;2071448;69;20144;-79
2022/11/25 11:05:28;;;;;;;8.30;3.58;;;;;;;17.36;32.71;92944.09;2068331;69;20159;-80
2022/11/25 11:08:36;;;;;;;6.20;4.35;;;;;;;18.84;31.60;92942.44;2071521;69;20152;-80
2022/11/25 11:11:22;;;;;;;9.20;5.43;;;;;;;20.35;27.30;92943.56;2069463;69;20179;-78
2022/11/25 11:13:49;;;;;;;9.35;5.55;;;;;;;21.27;27.71;92949.63;2071887;69;20623;-77
2022/11/25 11:16:27;;;;;;;4.35;2.60;;;;;;;19.51;27.63;92941.75;2065357;69;20156;-78
2022/11/25 11:18:54;;;;;;;9.00;6.45;;;;;;;18.64;28.17;92936.72;2071522;69;20140;-78
2022/11/25 11:21:59;;;;;;;12.82;6.47;;;;;;;15.20;32.26;92929.00;2071516;69;20147;-80
2022/11/25 11:24:36;;;;;;;3.38;2.67;;;;;;;12.87;35.54;92919.13;2063906;69;20149;-79
2022/11/25 11:27:22;;;;;;;3.42;2.40;;;;;;;13.40;35.58;92922.78;2063793;69;20152;-79
2022/11/25 11:30:09;;;;;;;4.70;2.63;;;;;;;12.59;36.26;92921.84;2064000;69;20161;-80
2022/11/25 11:32:35;;;;;;;6.32;3.28;;;;;;;11.56;38.31;92925.69;2063850;69;20149;-77
2022/11/25 11:35:24;;;;;;;10.55;5.50;;;;;;;10.98;40.20;92925.59;2063970;69;20730;-78
2022/11/25 11:38:00;;;;;;;9.43;7.22;;;;;;;11.04;40.41;92923.16;2063820;69;20614;-76
2022/11/25 11:40:49;;;;;;;8.07;4.15;;;;;;;10.99;40.67;92924.25;2063889;69;20133;-76
2022/11/25 11:43:48;;;;;;;13.32;4.03;;;;;;;10.67;40.89;92915.22;2063886;69;20137;-76
2022/11/25 11:46:23;;;;;;;10.60;4.00;;;;;;;10.35;41.70;92911.06;2063946;69;20244;-76
2022/11/25 11:49:11;;;;;;;7.60;2.97;;;;;;;10.19;43.60;92908.66;2063776;69;20195;-76
2022/11/25 11:52:07;;;;;;;5.10;2.25;;;;;;;9.70;42.72;92907.50;2063889;69;20125;-76
2022/11/25 11:55:15;;;;;;;4.15;2.30;;;;;;;9.21;44.18;92906.25;2064746;69;20345;-77
2022/11/25 11:58:02;;;;;;;5.88;3.78;;;;;;;7.90;46.99;92906.16;2066782;69;20202;-78
2022/11/25 12:00:33;;;;;;;25.17;12.77;;;;;;;8.14;47.85;92907.19;2071578;69;20530;-76
2022/11/25 12:03:15;;;;;;;31.88;14.40;;;;;;;8.04;47.48;92902.91;2071320;69;20224;-77
2022/11/25 12:05:41;;;;;;;19.90;10.13;;;;;;;7.85;48.41;92903.66;2071393;69;20266;-77